Time;durP1;ratioP1;P1;durP2;ratioP2;P2;SDS_P1;SDS_P2;PMS_P1;PMS_P2;Temp;Humidity;BMP_temperature;BMP_pressure;BME280_temperature;BME280_humidity;BME280_pressure;Samples;Min_cycle;Max_cycle;Signal;HPM_P1;HPM_P2
2023/01/04 00:00:35;;;;;;;2.28;1.30;;;;;;;-140.72;100.00;53186.34;5123679;27;20106;-71
2023/01/04 00:03:00;;;;;;;2.85;1.52;;;;;;;-140.72;100.00;53168.09;5126176;27;20048;-73
2023/01/04 00:05:25;;;;;;;1.65;1.30;;;;;;;-140.72;100.00;53186.34;5121884;27;20073;-71
2023/01/04 00:07:51;;;;;;;2.60;1.65;;;;;;;-140.72;100.00;53174.19;5126485;27;20513;-72
2023/01/04 00:10:16;;;;;;;3.33;1.50;;;;;;;-140.72;100.00;53170.13;5122161;27;20031;-71
2023/01/04 00:12:41;;;;;;;1.95;1.13;;;;;;;-140.72;100.00;53139.69;5122813;27;20019;-71
2023/01/04 00:15:07;;;;;;;3.25;1.33;;;;;;;-140.72;100.00;53170.13;5130446;27;20011;-73
2023/01/04 00:17:33;;;;;;;1.67;1.20;;;;;;;-140.72;100.00;53194.47;5122169;27;20053;-72
2023/01/04 00:19:58;;;;;;;2.47;1.20;;;;;;;-140.72;100.00;53172.16;5129228;27;20366;-73
2023/01/04 00:22:24;;;;;;;5.35;1.52;;;;;;;-140.72;100.00;53166.06;5130586;27;20015;-69
2023/01/04 00:24:49;;;;;;;5.72;1.73;;;;;;;-140.72;100.00;53200.56;5127605;27;20348;-70
2023/01/04 00:27:14;;;;;;;1.80;1.35;;;;;;;-140.72;100.00;53188.38;5129779;27;20023;-71
2023/01/04 00:29:40;;;;;;;2.67;1.42;;;;;;;-140.72;100.00;53164.03;5130289;27;20079;-70
2023/01/04 00:32:05;;;;;;;2.17;1.55;;;;;;;-140.72;100.00;53190.41;5129146;27;20114;-70
2023/01/04 00:34:31;;;;;;;1.48;1.15;;;;;;;-140.72;100.00;53166.06;5129601;27;20030;-70
2023/01/04 00:36:56;;;;;;;2.70;1.77;;;;;;;-140.72;100.00;53137.66;5127397;27;20022;-71
2023/01/04 00:39:21;;;;;;;1.83;1.20;;;;;;;-140.72;100.00;53172.16;5129521;27;20026;-70
2023/01/04 00:41:51;;;;;;;1.52;0.95;;;;;;;-140.72;100.00;53212.75;5127314;27;20106;-70
2023/01/04 00:44:17;;;;;;;4.60;1.67;;;;;;;-140.72;100.00;53186.34;5127945;27;20550;-71
2023/01/04 00:46:43;;;;;;;4.85;2.05;;;;;;;-140.72;100.00;53143.72;5127808;27;20102;-71
2023/01/04 00:49:10;;;;;;;0.90;0.75;;;;;;;-140.72;100.00;53190.41;5127064;27;20023;-72
2023/01/04 00:51:38;;;;;;;1.83;1.08;;;;;;;-140.72;100.00;53180.25;5128938;27;20087;-71
2023/01/04 00:54:06;;;;;;;5.65;1.60;;;;;;;-140.72;100.00;53168.09;5128057;27;20360;-70
2023/01/04 00:56:32;;;;;;;2.33;1.40;;;;;;;-140.72;100.00;53153.88;5127022;28;20019;-69
2023/01/04 00:58:59;;;;;;;3.60;1.73;;;;;;;-140.72;100.00;53147.78;5108447;28;20045;-71
2023/01/04 01:01:26;;;;;;;1.67;1.10;;;;;;;-140.72;100.00;53166.06;5127415;28;20110;-76
2023/01/04 01:03:57;;;;;;;3.97;1.60;;;;;;;-140.72;100.00;53166.06;5126150;28;20023;-70
2023/01/04 01:06:23;;;;;;;3.03;1.58;;;;;;;-140.72;100.00;53206.66;5129183;27;20152;-70
2023/01/04 01:08:50;;;;;;;2.35;1.50;;;;;;;-140.72;100.00;53155.91;5132639;27;20011;-70
2023/01/04 01:11:15;;;;;;;2.00;1.50;;;;;;;-140.72;100.00;53190.41;5133854;27;20034;-71
2023/01/04 01:13:41;;;;;;;3.10;1.80;;;;;;;-140.72;100.00;53157.94;5131986;27;20023;-72
2023/01/04 01:16:12;;;;;;;1.92;1.25;;;;;;;-140.72;100.00;53198.53;5131636;27;20023;-72
2023/01/04 01:18:40;;;;;;;1.88;1.40;;;;;;;-140.72;100.00;53168.09;5132398;27;20042;-70
2023/01/04 01:21:07;;;;;;;1.95;1.55;;;;;;;-140.72;100.00;53190.41;5132280;27;20098;-70
2023/01/04 01:23:32;;;;;;;3.35;2.22;;;;;;;-140.72;100.00;53170.13;5130186;27;20023;-73
2023/01/04 01:26:02;;;;;;;4.10;2.40;;;;;;;-140.72;100.00;53166.06;5133916;27;20481;-70
2023/01/04 01:28:28;;;;;;;3.63;2.20;;;;;;;-140.72;100.00;53145.75;5134246;27;20023;-72
2023/01/04 01:30:53;;;;;;;2.22;1.70;;;;;;;-140.72;100.00;53151.84;5131649;27;20038;-70
2023/01/04 01:33:19;;;;;;;4.85;2.95;;;;;;;-140.72;100.00;53153.88;5133035;27;20027;-70
2023/01/04 01:35:44;;;;;;;3.03;2.20;;;;;;;-140.72;100.00;53178.22;5132289;27;20033;-70
2023/01/04 01:38:09;;;;;;;2.95;2.45;;;;;;;-140.72;100.00;53117.34;5123871;27;20046;-73
2023/01/04 01:40:40;;;;;;;3.17;2.28;;;;;;;-140.72;100.00;53141.69;5128687;27;20027;-70
2023/01/04 01:43:15;;;;;;;2.97;2.28;;;;;;;-140.72;100.00;53145.75;5131288;27;20019;-70
2023/01/04 01:45:41;;;;;;;5.50;2.40;;;;;;;-140.72;100.00;53155.91;5126953;27;20011;-72
2023/01/04 01:48:14;;;;;;;4.72;2.67;;;;;;;-140.72;100.00;53178.22;5131030;27;20015;-70
2023/01/04 01:51:00;;;;;;;3.35;2.47;;;;;;;-140.72;100.00;53210.72;5130129;27;20065;-71
2023/01/04 01:53:29;;;;;;;2.97;2.50;;;;;;;-140.72;100.00;53149.81;5128176;27;20028;-72
2023/01/04 01:55:56;;;;;;;2.47;2.22;;;;;;;-140.72;100.00;53172.16;5131368;27;20110;-70
2023/01/04 01:58:27;;;;;;;7.63;3.10;;;;;;;-140.72;100.00;53139.69;5129707;27;20055;-69
2023/01/04 02:00:52;;;;;;;4.45;2.30;;;;;;;-140.72;100.00;53182.28;5121991;27;20019;-71
2023/01/04 02:03:21;;;;;;;2.67;1.88;;;;;;;-140.72;100.00;53159.97;5130373;27;20408;-71
2023/01/04 02:05:51;;;;;;;3.50;1.85;;;;;;;-140.72;100.00;53184.31;5133114;27;20342;-70
2023/01/04 02:08:18;;;;;;;;;;;;;;;-140.72;100.00;53125.47;5132381;27;20137;-69
2023/01/04 02:10:43;;;;;;;4.18;2.00;;;;;;;-140.72;100.00;53119.38;5133884;27;20207;-71
2023/01/04 02:13:16;;;;;;;3.25;2.20;;;;;;;-140.72;100.00;53111.25;5132307;27;20019;-71
2023/01/04 02:16:11;;;;;;;10.18;2.10;;;;;;;-140.72;100.00;53176.22;5132798;27;20539;-69
2023/01/04 02:18:45;;;;;;;4.15;2.00;;;;;;;-140.72;100.00;53147.78;5131312;27;20062;-73
2023/01/04 02:21:20;;;;;;;3.78;2.28;;;;;;;-140.72;100.00;53139.69;5124154;27;20051;-71
2023/01/04 02:24:40;;;;;;;2.25;1.40;;;;;;;-140.72;100.00;53157.94;5126330;27;20062;-71
2023/01/04 02:27:20;;;;;;;2.38;1.63;;;;;;;-140.72;100.00;53170.13;5048320;28;20033;-71
2023/01/04 02:29:54;;;;;;;2.15;1.63;;;;;;;-140.72;100.00;53149.81;5113524;27;20031;-74
2023/01/04 02:32:48;;;;;;;3.13;1.73;;;;;;;-140.72;100.00;53168.09;5118011;27;20372;-71
2023/01/04 02:35:24;;;;;;;1.70;1.10;;;;;;;-140.72;100.00;53180.25;5126203;27;20019;-69
2023/01/04 02:38:13;;;;;;;2.47;1.55;;;;;;;-140.72;100.00;53153.88;5116912;27;20019;-72
2023/01/04 02:40:59;;;;;;;3.72;1.85;;;;;;;-140.72;100.00;53123.44;5125342;27;20015;-73
2023/01/04 02:46:30;;;;;;;;;;;;;;;-140.72;100.00;53174.19;5120459;27;20103;-71
2023/01/04 02:51:42;;;;;;;1.98;1.27;;;;;;;-140.72;100.00;53155.91;5129833;27;20054;-75
2023/01/04 02:54:14;;;;;;;2.75;1.95;;;;;;;-140.72;100.00;53125.47;5121105;27;20429;-71
2023/01/04 02:56:57;;;;;;;2.65;1.55;;;;;;;-140.72;100.00;53149.81;5126516;27;20011;-70
2023/01/04 02:59:57;;;;;;;2.03;1.38;;;;;;;-140.72;100.00;53155.91;5130368;27;20047;-75
2023/01/04 03:06:14;;;;;;;1.80;1.40;;;;;;;-140.72;100.00;53170.13;5121202;27;20111;-71
2023/01/04 03:08:46;;;;;;;3.03;1.63;;;;;;;-140.72;100.00;53141.69;5131697;27;20027;-71
2023/01/04 03:14:13;;;;;;;3.38;1.90;;;;;;;-140.72;100.00;53174.19;5128541;27;20030;-71
2023/01/04 03:16:41;;;;;;;5.75;2.08;;;;;;;-140.72;100.00;53170.13;5131277;27;20094;-72
2023/01/04 03:19:08;;;;;;;4.78;2.17;;;;;;;-140.72;100.00;53180.25;5131898;27;20015;-71
2023/01/04 03:21:35;;;;;;;2.30;1.55;;;;;;;-140.72;100.00;53125.47;5132059;27;20485;-71
2023/01/04 03:35:28;;;;;;;3.80;1.58;;;;;;;-140.72;100.00;53162.00;5128252;27;20508;-71
2023/01/04 03:49:56;;;;;;;2.72;1.60;;;;;;;-140.72;100.00;53159.97;5117293;27;20034;-70
2023/01/04 03:52:25;;;;;;;2.53;1.58;;;;;;;-140.72;100.00;53159.97;5129960;27;20054;-71
2023/01/04 03:54:52;;;;;;;3.60;1.48;;;;;;;-140.72;100.00;53113.28;5127684;27;20158;-71
2023/01/04 03:57:19;;;;;;;2.17;1.60;;;;;;;-140.72;100.00;53162.00;5127714;27;20106;-74
2023/01/04 03:59:54;;;;;;;2.72;1.98;;;;;;;-140.72;100.00;53082.84;5126442;27;20205;-71
2023/01/04 04:02:27;;;;;;;3.30;1.67;;;;;;;-140.72;100.00;53125.47;5131780;27;20030;-74
2023/01/04 04:10:20;;;;;;;2.75;2.33;;;;;;;-140.72;100.00;53107.19;5115428;27;20107;-72
2023/01/04 04:12:47;;;;;;;6.13;2.15;;;;;;;-140.72;100.00;53139.69;5131562;27;20258;-71
2023/01/04 04:15:13;;;;;;;2.50;1.60;;;;;;;-140.72;100.00;53162.00;5131313;27;20025;-74
2023/01/04 04:17:38;;;;;;;2.47;1.60;;;;;;;-140.72;100.00;53153.88;5132051;27;20023;-74
2023/01/04 04:20:04;;;;;;;2.60;1.77;;;;;;;-140.72;100.00;53166.06;5119300;27;20019;-73
2023/01/04 04:22:29;;;;;;;2.35;1.55;;;;;;;-140.72;100.00;53176.22;5120936;27;20019;-71
2023/01/04 04:24:55;;;;;;;5.13;1.70;;;;;;;-140.72;100.00;53119.38;5120050;27;20490;-72
2023/01/04 04:27:20;;;;;;;2.03;1.77;;;;;;;-140.72;100.00;53145.75;5130373;27;20023;-72
2023/01/04 04:29:45;;;;;;;3.35;2.20;;;;;;;-140.72;100.00;53166.06;5127551;27;20098;-71
2023/01/04 04:32:11;;;;;;;3.40;2.05;;;;;;;-140.72;100.00;53149.81;5130466;27;20019;-71
2023/01/04 04:34:36;;;;;;;3.80;2.40;;;;;;;-140.72;100.00;53141.69;5127058;27;20139;-71
2023/01/04 04:37:02;;;;;;;4.10;2.35;;;;;;;-140.72;100.00;53125.47;5126633;27;20018;-71
2023/01/04 04:39:27;;;;;;;2.90;2.08;;;;;;;-140.72;100.00;53166.06;5127685;27;20022;-74
2023/01/04 04:41:52;;;;;;;4.00;2.03;;;;;;;-140.72;100.00;53168.09;5113918;28;20030;-71
2023/01/04 04:44:19;;;;;;;3.65;2.03;;;;;;;-140.72;100.00;53166.06;5123010;27;20077;-71
2023/01/04 04:46:46;;;;;;;3.85;2.28;;;;;;;-140.72;100.00;53121.41;5124070;27;20168;-71
2023/01/04 04:49:12;;;;;;;2.25;1.70;;;;;;;-140.72;100.00;53153.88;5122727;27;20448;-70
2023/01/04 04:51:38;;;;;;;1.95;1.55;;;;;;;-140.72;100.00;53141.69;5118245;27;20019;-71
2023/01/04 04:54:05;;;;;;;3.13;1.80;;;;;;;-140.72;100.00;53162.00;5130647;27;20112;-72
2023/01/04 04:56:30;;;;;;;2.42;1.50;;;;;;;-140.72;100.00;53109.22;5128588;28;20069;-72
2023/01/04 04:58:55;;;;;;;2.72;1.70;;;;;;;-140.72;100.00;53172.16;5128402;28;20110;-73
2023/01/04 05:01:21;;;;;;;2.83;1.92;;;;;;;-140.72;100.00;53147.78;5128292;28;20023;-71
2023/01/04 05:03:46;;;;;;;2.72;1.35;;;;;;;-140.72;100.00;53109.22;5128236;28;20045;-71
2023/01/04 05:06:12;;;;;;;2.45;1.60;;;;;;;-140.72;100.00;53145.75;5114956;28;20379;-74
2023/01/04 05:08:38;;;;;;;2.90;1.50;;;;;;;-140.72;100.00;53131.56;5113457;28;20026;-70
2023/01/04 05:11:05;;;;;;;2.08;1.42;;;;;;;-140.72;100.00;53133.59;5115805;28;20489;-72
2023/01/04 05:13:31;;;;;;;2.47;1.70;;;;;;;-140.72;100.00;53174.19;5115352;28;20097;-70
2023/01/04 05:15:57;;;;;;;1.65;1.38;;;;;;;-140.72;100.00;53101.13;5119570;28;20019;-70
2023/01/04 05:18:22;;;;;;;1.88;1.40;;;;;;;-140.72;100.00;53115.31;5119195;28;20035;-70
2023/01/04 05:20:48;;;;;;;1.90;1.27;;;;;;;-140.72;100.00;53174.19;5124361;28;21722;-70
2023/01/04 05:23:15;;;;;;;2.00;1.20;;;;;;;-140.72;100.00;53139.69;5123124;28;20027;-75
2023/01/04 05:25:41;;;;;;;2.53;0.77;;;;;;;-140.72;100.00;53143.72;5115518;28;20023;-71
2023/01/04 05:28:07;;;;;;;2.28;1.45;;;;;;;-140.72;100.00;53123.44;5126025;28;20050;-70
2023/01/04 05:33:20;;;;;;;3.45;1.83;;;;;;;-140.72;100.00;53174.19;5127237;28;20041;-72
2023/01/04 05:35:46;;;;;;;2.53;1.70;;;;;;;-140.72;100.00;53127.50;5125334;28;20106;-70
2023/01/04 05:38:12;;;;;;;3.55;1.50;;;;;;;-140.72;100.00;53170.13;5123583;28;20118;-70
2023/01/04 05:40:37;;;;;;;2.55;1.23;;;;;;;-140.72;100.00;53123.44;5127794;28;20015;-74
2023/01/04 05:43:02;;;;;;;2.78;1.20;;;;;;;-140.72;100.00;53117.34;5123889;28;20087;-70
2023/01/04 05:45:28;;;;;;;1.77;1.27;;;;;;;-140.72;100.00;53164.03;5125787;28;20026;-70
2023/01/04 05:47:53;;;;;;;1.17;0.93;;;;;;;-140.72;100.00;53153.88;5120220;28;20370;-72
2023/01/04 05:50:21;;;;;;;2.28;1.65;;;;;;;-140.72;100.00;53127.50;5124151;28;20115;-72
2023/01/04 05:52:47;;;;;;;2.08;1.40;;;;;;;-140.72;100.00;53107.19;5122659;27;20048;-71
2023/01/04 05:55:12;;;;;;;2.38;1.40;;;;;;;-140.72;100.00;53137.66;5132573;27;20015;-72
2023/01/04 05:57:38;;;;;;;2.15;1.40;;;;;;;-140.72;100.00;53127.50;5119735;27;20113;-70
2023/01/04 06:00:05;;;;;;;1.33;1.08;;;;;;;-140.72;100.00;53123.44;5125958;27;20477;-70
2023/01/04 06:02:31;;;;;;;2.50;1.52;;;;;;;-140.72;100.00;53123.44;5121915;27;20032;-70
2023/01/04 06:04:56;;;;;;;2.53;1.60;;;;;;;-140.72;100.00;53131.56;5127189;27;20353;-70
2023/01/04 06:07:22;;;;;;;2.88;1.75;;;;;;;-140.72;100.00;53135.63;5119174;27;20016;-71
2023/01/04 06:09:48;;;;;;;2.58;1.90;;;;;;;-140.72;100.00;53145.75;5128678;27;20028;-71
2023/01/04 06:12:13;;;;;;;5.25;1.95;;;;;;;-140.72;100.00;53133.59;5127221;27;20050;-72
2023/01/04 06:14:39;;;;;;;3.08;1.95;;;;;;;-140.72;100.00;53135.63;5128749;27;20032;-70
2023/01/04 06:17:05;;;;;;;2.80;2.05;;;;;;;-140.72;100.00;53147.78;5127347;27;20477;-73
2023/01/04 06:19:31;;;;;;;3.38;2.58;;;;;;;-140.72;100.00;53153.88;5128024;27;20011;-74
2023/01/04 06:21:57;;;;;;;4.97;2.13;;;;;;;-140.72;100.00;53143.72;5120636;27;20083;-70
2023/01/04 06:24:22;;;;;;;3.55;1.58;;;;;;;-140.72;100.00;53143.72;5130351;27;20022;-71
2023/01/04 06:26:48;;;;;;;5.00;1.92;;;;;;;-140.72;100.00;53088.94;5128216;27;20059;-70
2023/01/04 06:29:13;;;;;;;2.83;1.48;;;;;;;-140.72;100.00;53129.53;5128054;27;20027;-71
2023/01/04 06:31:39;;;;;;;3.97;1.90;;;;;;;-140.72;100.00;53082.84;5124819;27;20042;-73
2023/01/04 06:34:04;;;;;;;2.13;1.63;;;;;;;-140.72;100.00;53143.72;5125379;27;20522;-70
2023/01/04 06:36:30;;;;;;;3.35;1.80;;;;;;;-140.72;100.00;53159.97;5130427;27;20359;-71
2023/01/04 06:38:59;;;;;;;3.92;1.58;;;;;;;-140.72;100.00;53129.53;5128412;27;20076;-73
2023/01/04 06:41:25;;;;;;;2.63;1.85;;;;;;;-140.72;100.00;53121.41;5128183;27;20027;-73
2023/01/04 06:43:51;;;;;;;2.15;1.17;;;;;;;-140.72;100.00;53105.19;5130471;27;20019;-73
2023/01/04 06:46:18;;;;;;;2.13;1.33;;;;;;;-140.72;100.00;53113.28;5128930;27;20057;-72
2023/01/04 06:48:44;;;;;;;4.38;1.48;;;;;;;-140.72;100.00;53105.19;5126844;27;20021;-71
2023/01/04 06:51:10;;;;;;;4.22;1.95;;;;;;;-140.72;100.00;53151.84;5129006;27;20027;-72
2023/01/04 06:53:35;;;;;;;7.65;1.92;;;;;;;-140.72;100.00;53113.28;5127673;27;20095;-70
2023/01/04 06:56:01;;;;;;;2.70;1.88;;;;;;;-140.72;100.00;53113.28;5129150;27;20019;-70
2023/01/04 06:58:26;;;;;;;3.15;1.73;;;;;;;-140.72;100.00;53129.53;5129632;27;20019;-71
2023/01/04 07:00:53;;;;;;;2.97;1.42;;;;;;;-140.72;100.00;53153.88;5126593;27;20050;-71
2023/01/04 07:03:19;;;;;;;2.35;1.73;;;;;;;-140.72;100.00;53123.44;5128819;27;20075;-70
2023/01/04 07:05:45;;;;;;;2.40;1.50;;;;;;;-140.72;100.00;53125.47;5127074;27;20109;-71
2023/01/04 07:08:11;;;;;;;1.77;1.08;;;;;;;-140.72;100.00;53095.03;5127179;27;20095;-70
2023/01/04 07:10:37;;;;;;;6.05;1.58;;;;;;;-140.72;100.00;53143.72;5126277;27;20138;-70
2023/01/04 07:13:03;;;;;;;3.25;1.60;;;;;;;-140.72;100.00;53133.59;5128438;27;20059;-72
2023/01/04 07:15:28;;;;;;;3.42;1.38;;;;;;;-140.72;100.00;53125.47;5125623;27;20035;-74
2023/01/04 07:17:53;;;;;;;6.55;1.67;;;;;;;-140.72;100.00;53155.91;5129373;27;20369;-71
2023/01/04 07:20:19;;;;;;;5.20;1.70;;;;;;;-140.72;100.00;53133.59;5124499;27;20117;-73
2023/01/04 07:22:44;;;;;;;2.53;1.27;;;;;;;-140.72;100.00;53157.94;5126262;27;20023;-70
2023/01/04 07:31:23;;;;;;;3.10;1.80;;;;;;;-140.72;100.00;53133.59;5157238;22;20063;-70
2023/01/04 07:33:49;;;;;;;2.78;1.80;;;;;;;-140.72;100.00;53149.81;5097674;28;20032;-70
2023/01/04 07:36:15;;;;;;;2.25;1.52;;;;;;;-140.72;100.00;53139.69;5100945;28;20024;-72
2023/01/04 07:38:42;;;;;;;2.33;1.67;;;;;;;-140.72;100.00;53166.06;5099283;28;20471;-72
2023/01/04 07:41:07;;;;;;;3.17;1.85;;;;;;;-140.72;100.00;53121.41;5101635;28;20107;-71
2023/01/04 07:43:33;;;;;;;4.40;1.77;;;;;;;-140.72;100.00;53125.47;5094970;28;20140;-75
2023/01/04 07:45:58;;;;;;;1.40;1.00;;;;;;;-140.72;100.00;53149.81;5095845;28;20030;-72
2023/01/04 07:48:23;;;;;;;2.97;1.70;;;;;;;-140.72;100.00;53145.75;5101471;28;20027;-70
2023/01/04 07:50:49;;;;;;;2.45;1.42;;;;;;;-140.72;100.00;53103.16;5097265;28;20015;-71
2023/01/04 07:53:14;;;;;;;0.88;0.60;;;;;;;-140.72;100.00;53139.69;5101426;28;20023;-70
2023/01/04 07:55:40;;;;;;;1.25;0.80;;;;;;;-140.72;100.00;53080.81;5095634;28;20019;-72
2023/01/04 07:58:05;;;;;;;3.67;1.20;;;;;;;-140.72;100.00;53170.13;5097291;28;20023;-70
2023/01/04 08:00:31;;;;;;;2.13;1.13;;;;;;;-140.72;100.00;53113.28;5094882;28;20031;-71
2023/01/04 08:02:56;;;;;;;2.92;1.35;;;;;;;-140.72;100.00;53147.78;5094142;28;20036;-71
2023/01/04 08:05:23;;;;;;;2.40;1.00;;;;;;;-140.72;100.00;53137.66;5101323;28;20077;-71
2023/01/04 08:07:49;;;;;;;1.92;1.27;;;;;;;-140.72;100.00;53113.28;5098595;28;20049;-70
2023/01/04 08:10:14;;;;;;;1.52;0.77;;;;;;;-140.72;100.00;53141.69;5099383;28;20118;-69
2023/01/04 08:12:39;;;;;;;1.90;1.02;;;;;;;-140.72;100.00;53141.69;5102906;28;20024;-74
2023/01/04 08:15:05;;;;;;;1.83;0.88;;;;;;;-140.72;100.00;53157.94;5099762;28;20157;-72
2023/01/04 08:17:31;;;;;;;2.15;1.13;;;;;;;-140.72;100.00;53109.22;5099759;28;20031;-71
2023/01/04 08:20:19;;;;;;;4.38;1.30;;;;;;;-140.72;100.00;53107.19;5101755;28;20463;-70
2023/01/04 08:22:45;;;;;;;3.05;1.25;;;;;;;-140.72;100.00;53157.94;5092324;28;20032;-70
2023/01/04 08:25:10;;;;;;;3.00;1.15;;;;;;;-140.72;100.00;53178.22;5092428;28;20027;-70
2023/01/04 08:27:36;;;;;;;2.95;1.02;;;;;;;-140.72;100.00;53113.28;5100586;28;20031;-69
2023/01/04 08:30:01;;;;;;;1.98;0.95;;;;;;;-140.72;100.00;53143.72;5103083;28;20024;-70
2023/01/04 08:32:27;;;;;;;1.92;1.33;;;;;;;-140.72;100.00;53143.72;5096213;28;20026;-69
2023/01/04 08:34:53;;;;;;;1.10;0.90;;;;;;;-140.72;100.00;53121.41;5103216;28;20036;-70
2023/01/04 08:37:18;;;;;;;1.75;0.95;;;;;;;-140.72;100.00;53135.63;5095587;28;20097;-72
2023/01/04 08:39:44;;;;;;;2.83;0.95;;;;;;;-140.72;100.00;53115.31;5102495;28;20431;-70
2023/01/04 08:42:09;;;;;;;0.85;0.52;;;;;;;-140.72;100.00;53097.06;5104990;28;20022;-70
2023/01/04 08:44:34;;;;;;;5.22;1.42;;;;;;;-140.72;100.00;53080.81;5101303;28;20408;-72
2023/01/04 08:47:00;;;;;;;2.25;1.15;;;;;;;-140.72;100.00;53133.59;5101336;28;20016;-70
2023/01/04 08:49:25;;;;;;;4.60;2.08;;;;;;;-140.72;100.00;53133.59;5101372;28;20459;-69
2023/01/04 08:51:51;;;;;;;9.15;1.67;;;;;;;-140.72;100.00;53090.97;5099910;28;20032;-71
2023/01/04 08:54:17;;;;;;;5.35;1.17;;;;;;;-140.72;100.00;53109.22;5099230;28;20098;-71
2023/01/04 08:56:43;;;;;;;5.47;1.48;;;;;;;-140.72;100.00;53125.47;5100907;28;20024;-69
2023/01/04 08:59:09;;;;;;;6.80;1.92;;;;;;;-140.72;100.00;53113.28;5094966;28;20055;-70
2023/01/04 09:01:35;;;;;;;3.70;1.17;;;;;;;-140.72;100.00;53137.66;5102078;28;20038;-72
2023/01/04 09:04:04;;;;;;;3.83;1.20;;;;;;;-140.72;100.00;53058.50;5104539;28;20099;-72
2023/01/04 09:06:31;;;;;;;4.22;1.63;;;;;;;-140.72;100.00;53111.25;5090848;28;20031;-71
2023/01/04 09:08:56;;;;;;;3.97;1.20;;;;;;;-140.72;100.00;53113.28;5097542;28;20430;-70
2023/01/04 09:11:23;;;;;;;3.13;1.13;;;;;;;-140.72;100.00;53109.22;5101337;28;20055;-71
2023/01/04 09:13:55;;;;;;;5.05;1.35;;;;;;;-140.72;100.00;53117.34;5092905;28;20478;-70
2023/01/04 09:16:20;;;;;;;5.82;1.90;;;;;;;-140.72;100.00;53129.53;5094259;28;20043;-71
2023/01/04 09:18:46;;;;;;;1.92;0.93;;;;;;;-140.72;100.00;53139.69;5103238;28;20748;-71
2023/01/04 09:21:14;;;;;;;3.22;1.15;;;;;;;-140.72;100.00;53107.19;5098931;28;20020;-70
2023/01/04 09:23:41;;;;;;;5.88;1.85;;;;;;;-140.72;100.00;53145.75;5099339;28;20082;-70
2023/01/04 09:26:08;;;;;;;3.80;1.23;;;;;;;-140.72;100.00;53088.94;5098904;28;20138;-71
2023/01/04 09:28:34;;;;;;;1.33;0.90;;;;;;;-140.72;100.00;53105.19;5102692;28;20573;-71
2023/01/04 09:31:07;;;;;;;7.90;1.17;;;;;;;-140.72;100.00;53141.69;5102521;28;20131;-70
2023/01/04 09:33:32;;;;;;;2.85;0.90;;;;;;;-140.72;100.00;53072.69;5099407;28;20058;-70
2023/01/04 09:36:02;;;;;;;5.72;1.40;;;;;;;-140.72;100.00;53123.44;5093466;28;20394;-71
2023/01/04 09:38:28;;;;;;;4.57;0.88;;;;;;;-140.72;100.00;53135.63;5105125;28;20130;-70
2023/01/04 09:41:12;;;;;;;3.00;1.15;;;;;;;-140.72;100.00;53097.06;5101611;28;20031;-74
2023/01/04 09:43:51;;;;;;;5.60;1.48;;;;;;;-140.72;100.00;53117.34;5111178;28;20024;-70
2023/01/04 09:46:45;;;;;;;2.75;1.40;;;;;;;-140.72;100.00;53119.38;5099161;28;20375;-71
2023/01/04 09:49:20;;;;;;;5.85;1.23;;;;;;;-140.72;100.00;53133.59;5098264;28;20057;-72
2023/01/04 09:52:12;;;;;;;8.65;2.30;;;;;;;-140.72;100.00;53086.91;5102035;28;20055;-70
2023/01/04 09:54:46;;;;;;;5.07;1.67;;;;;;;-140.72;100.00;53056.47;5104189;28;20011;-71
2023/01/04 09:57:31;;;;;;;5.40;1.25;;;;;;;-140.72;100.00;53093.00;5099642;28;20020;-70
2023/01/04 10:00:04;;;;;;;5.70;1.25;;;;;;;-140.72;100.00;53093.00;5109447;28;20470;-71
2023/01/04 10:02:48;;;;;;;2.67;1.50;;;;;;;-140.72;100.00;53121.41;5105402;28;20165;-71
2023/01/04 10:05:20;;;;;;;3.00;1.02;;;;;;;-140.72;100.00;53113.28;5092652;28;20409;-71
2023/01/04 10:07:46;;;;;;;2.38;1.05;;;;;;;-140.72;100.00;53121.41;5103308;28;20020;-72
2023/01/04 10:10:16;;;;;;;4.53;0.70;;;;;;;-140.72;100.00;53056.47;5106035;28;20031;-70
2023/01/04 10:13:08;;;;;;;4.03;0.80;;;;;;;-140.72;100.00;53078.78;5108045;28;20024;-71
2023/01/04 10:16:01;;;;;;;6.82;1.13;;;;;;;-140.72;100.00;53121.41;5108842;28;20007;-71
2023/01/04 10:18:50;;;;;;;2.97;1.67;;;;;;;-140.72;100.00;53119.38;5094834;28;20119;-70
2023/01/04 10:21:34;;;;;;;3.90;1.35;;;;;;;-140.72;100.00;53109.22;5069640;28;20039;-71
2023/01/04 10:24:20;;;;;;;1.63;0.88;;;;;;;-140.72;100.00;53137.66;5103812;28;20046;-71
2023/01/04 10:26:52;;;;;;;0.75;0.40;;;;;;;-140.72;100.00;53117.34;5097643;28;20459;-69
2023/01/04 10:29:44;;;;;;;2.67;1.27;;;;;;;-140.72;100.00;53088.94;5099293;28;20026;-72
2023/01/04 10:32:21;;;;;;;7.40;1.08;;;;;;;-140.72;100.00;53088.94;5124997;27;20063;-71
2023/01/04 10:34:47;;;;;;;2.38;1.00;;;;;;;-140.72;100.00;53117.34;5122529;27;20051;-71
2023/01/04 10:37:22;;;;;;;3.30;1.60;;;;;;;-140.72;100.00;53125.47;5121016;27;20053;-71
2023/01/04 10:39:54;;;;;;;2.05;1.23;;;;;;;-140.72;100.00;53082.84;5114494;27;20076;-71
2023/01/04 10:42:43;;;;;;;1.30;0.60;;;;;;;-140.72;100.00;53105.19;5129380;27;20088;-71
2023/01/04 10:45:22;;;;;;;4.32;1.20;;;;;;;-140.72;100.00;53119.38;5119158;27;20102;-70
2023/01/04 10:48:08;;;;;;;4.07;1.25;;;;;;;-140.72;100.00;53086.91;5126661;27;20019;-72
2023/01/04 10:50:36;;;;;;;1.75;1.15;;;;;;;-140.72;100.00;53068.66;5128227;27;20027;-69
2023/01/04 10:53:26;;;;;;;2.45;0.98;;;;;;;-140.72;100.00;53125.47;5119735;27;20038;-71
2023/01/04 10:56:02;;;;;;;5.15;1.30;;;;;;;-140.72;100.00;53097.06;5127141;27;20019;-71
2023/01/04 10:58:38;;;;;;;2.63;0.93;;;;;;;-140.72;100.00;53078.78;5123799;27;20122;-71
2023/01/04 11:01:11;;;;;;;5.47;1.55;;;;;;;-140.72;100.00;53090.97;5120187;27;20027;-73
2023/01/04 11:04:00;;;;;;;2.95;1.48;;;;;;;-140.72;100.00;53080.81;5112070;27;20440;-71
2023/01/04 11:06:29;;;;;;;3.15;0.80;;;;;;;-140.72;100.00;53109.22;5129072;27;20465;-73
2023/01/04 11:09:00;;;;;;;1.10;0.70;;;;;;;-140.72;100.00;53111.25;5121761;27;20181;-72
2023/01/04 11:11:41;;;;;;;1.25;0.75;;;;;;;-140.72;100.00;53088.94;5114250;27;20015;-73
2023/01/04 11:14:09;;;;;;;1.95;0.77;;;;;;;-140.72;100.00;53107.19;5119718;27;20031;-71
2023/01/04 11:16:35;;;;;;;4.85;0.40;;;;;;;-140.72;100.00;53064.59;5119625;27;20485;-70
2023/01/04 11:19:03;;;;;;;0.70;0.60;;;;;;;-140.72;100.00;53101.13;5112516;27;20051;-71
2023/01/04 11:21:34;;;;;;;0.80;0.50;;;;;;;-140.72;100.00;53117.34;5113234;27;20019;-71
2023/01/04 11:24:05;;;;;;;5.85;1.00;;;;;;;-140.72;100.00;53072.69;5115308;27;20454;-72
2023/01/04 11:26:37;;;;;;;1.48;0.50;;;;;;;-140.72;100.00;53107.19;5111107;27;20026;-71
2023/01/04 11:29:14;;;;;;;2.70;0.63;;;;;;;-140.72;100.00;53066.63;5114446;27;20015;-71
2023/01/04 11:32:00;;;;;;;1.33;0.57;;;;;;;-140.72;100.00;53109.22;5115843;27;20035;-72
2023/01/04 11:34:49;;;;;;;5.57;1.13;;;;;;;-140.72;100.00;53046.31;5122898;27;20058;-74
2023/01/04 11:37:41;;;;;;;5.40;1.02;;;;;;;-140.72;100.00;53072.69;5111590;28;20089;-74
2023/01/04 11:40:15;;;;;;;5.15;1.10;;;;;;;-140.72;100.00;53066.63;5123147;27;20034;-72
2023/01/04 11:42:45;;;;;;;3.88;0.98;;;;;;;-140.72;100.00;53113.28;5118290;27;20030;-74
2023/01/04 11:45:20;;;;;;;2.13;0.50;;;;;;;-140.72;100.00;53105.19;5112916;27;20049;-72
2023/01/04 11:47:56;;;;;;;2.17;1.13;;;;;;;-140.72;100.00;53048.34;5123708;27;20027;-76
2023/01/04 11:50:46;;;;;;;3.20;0.93;;;;;;;-140.72;100.00;53095.03;5112446;27;20052;-74
2023/01/04 11:53:23;;;;;;;4.13;0.90;;;;;;;-140.72;100.00;53068.66;5117154;27;21126;-74
2023/01/04 11:55:50;;;;;;;1.67;0.70;;;;;;;-140.72;100.00;53101.13;5125939;27;20716;-72
2023/01/04 11:58:18;;;;;;;1.85;1.15;;;;;;;-140.72;100.00;53111.25;5122332;27;20032;-70
2023/01/04 12:01:02;;;;;;;3.22;1.63;;;;;;;-140.72;100.00;53082.84;5119814;27;20033;-73
2023/01/04 12:03:38;;;;;;;3.03;0.68;;;;;;;-140.72;100.00;53111.25;5119136;27;20366;-70
2023/01/04 12:06:23;;;;;;;9.27;1.10;;;;;;;-140.72;100.00;53072.69;5121940;27;20070;-70
2023/01/04 12:08:49;;;;;;;5.50;1.25;;;;;;;-140.72;100.00;53052.41;5112553;27;20041;-74
2023/01/04 12:11:28;;;;;;;4.28;1.02;;;;;;;-140.72;100.00;53056.47;5125668;27;20027;-71